sensor_id;sensor_type;location;lat;lon;timestamp;pressure;altitude;pressure_sealevel;temperature;humidity
34586;BME280;20816;50.950;11.108;2023-07-20T00:01:51;98103.13;;;15.71;100.00
34586;BME280;20816;50.950;11.108;2023-07-20T00:04:18;98103.22;;;15.69;100.00
34586;BME280;20816;50.950;11.108;2023-07-20T00:06:45;98109.69;;;15.64;100.00
34586;BME280;20816;50.950;11.108;2023-07-20T00:09:12;98103.66;;;15.60;100.00
34586;BME280;20816;50.950;11.108;2023-07-20T00:11:38;98105.44;;;15.60;100.00
34586;BME280;20816;50.950;11.108;2023-07-20T00:14:06;98110.06;;;15.56;100.00
34586;BME280;20816;50.950;11.108;2023-07-20T00:16:33;98117.28;;;15.53;100.00
34586;BME280;20816;50.950;11.108;2023-07-20T00:18:59;98110.09;;;15.55;100.00
34586;BME280;20816;50.950;11.108;2023-07-20T00:21:26;98117.16;;;15.56;100.00
34586;BME280;20816;50.950;11.108;2023-07-20T00:23:53;98116.97;;;15.59;100.00
34586;BME280;20816;50.950;11.108;2023-07-20T00:26:20;98121.06;;;15.47;100.00
34586;BME280;20816;50.950;11.108;2023-07-20T00:28:49;98121.22;;;15.44;100.00
34586;BME280;20816;50.950;11.108;2023-07-20T00:31:16;98117.81;;;15.42;100.00
34586;BME280;20816;50.950;11.108;2023-07-20T00:33:43;98116.19;;;15.39;100.00
34586;BME280;20816;50.950;11.108;2023-07-20T00:36:10;98110.88;;;15.39;100.00
34586;BME280;20816;50.950;11.108;2023-07-20T00:38:36;98111.59;;;15.43;100.00
34586;BME280;20816;50.950;11.108;2023-07-20T00:41:03;98115.38;;;15.37;100.00
34586;BME280;20816;50.950;11.108;2023-07-20T00:43:30;98121.00;;;15.31;100.00
34586;BME280;20816;50.950;11.108;2023-07-20T00:45:56;98116.59;;;15.30;100.00
34586;BME280;20816;50.950;11.108;2023-07-20T00:48:23;98114.59;;;15.35;100.00
34586;BME280;20816;50.950;11.108;2023-07-20T00:50:50;98110.09;;;15.37;100.00
34586;BME280;20816;50.950;11.108;2023-07-20T00:53:17;98100.44;;;15.36;100.00
34586;BME280;20816;50.950;11.108;2023-07-20T00:55:44;98094.84;;;15.42;100.00
34586;BME280;20816;50.950;11.108;2023-07-20T00:58:11;98103.41;;;15.48;100.00
34586;BME280;20816;50.950;11.108;2023-07-20T01:00:38;98109.13;;;15.38;100.00
34586;BME280;20816;50.950;11.108;2023-07-20T01:03:04;98107.59;;;15.34;100.00
34586;BME280;20816;50.950;11.108;2023-07-20T01:05:56;98098.31;;;15.26;100.00
34586;BME280;20816;50.950;11.108;2023-07-20T01:08:36;98103.53;;;15.27;100.00
34586;BME280;20816;50.950;11.108;2023-07-20T01:11:13;98109.03;;;15.23;100.00
34586;BME280;20816;50.950;11.108;2023-07-20T01:13:43;98107.28;;;15.23;100.00
34586;BME280;20816;50.950;11.108;2023-07-20T01:16:10;98108.03;;;15.25;100.00
34586;BME280;20816;50.950;11.108;2023-07-20T01:18:37;98101.03;;;15.24;100.00
34586;BME280;20816;50.950;11.108;2023-07-20T01:21:09;98107.28;;;15.23;100.00
34586;BME280;20816;50.950;11.108;2023-07-20T01:32:09;98092.91;;;15.10;100.00
34586;BME280;20816;50.950;11.108;2023-07-20T01:34:38;98095.75;;;15.05;100.00
34586;BME280;20816;50.950;11.108;2023-07-20T01:37:06;98105.34;;;15.08;100.00
34586;BME280;20816;50.950;11.108;2023-07-20T01:39:34;98106.56;;;15.01;100.00
34586;BME280;20816;50.950;11.108;2023-07-20T01:42:01;98106.66;;;14.99;100.00
34586;BME280;20816;50.950;11.108;2023-07-20T01:44:28;98111.09;;;14.99;100.00
34586;BME280;20816;50.950;11.108;2023-07-20T01:46:56;98105.63;;;15.02;100.00
34586;BME280;20816;50.950;11.108;2023-07-20T01:49:22;98110.78;;;15.05;100.00
34586;BME280;20816;50.950;11.108;2023-07-20T01:51:49;98111.34;;;15.11;100.00
34586;BME280;20816;50.950;11.108;2023-07-20T01:54:16;98113.06;;;15.12;100.00
34586;BME280;20816;50.950;11.108;2023-07-20T01:56:43;98113.22;;;15.09;100.00
34586;BME280;20816;50.950;11.108;2023-07-20T01:59:09;98116.72;;;15.10;100.00
34586;BME280;20816;50.950;11.108;2023-07-20T02:01:36;98121.25;;;15.08;100.00
34586;BME280;20816;50.950;11.108;2023-07-20T02:04:03;98109.06;;;15.04;100.00
34586;BME280;20816;50.950;11.108;2023-07-20T02:06:31;98117.78;;;15.06;100.00
34586;BME280;20816;50.950;11.108;2023-07-20T02:08:58;98112.50;;;15.06;100.00
34586;BME280;20816;50.950;11.108;2023-07-20T02:11:25;98105.63;;;15.02;100.00
34586;BME280;20816;50.950;11.108;2023-07-20T02:13:52;98104.88;;;15.00;100.00
34586;BME280;20816;50.950;11.108;2023-07-20T02:16:18;98108.44;;;14.99;100.00
34586;BME280;20816;50.950;11.108;2023-07-20T02:18:45;98117.00;;;15.04;100.00
34586;BME280;20816;50.950;11.108;2023-07-20T02:21:12;98117.66;;;15.09;100.00
34586;BME280;20816;50.950;11.108;2023-07-20T02:23:39;98107.06;;;15.09;100.00
34586;BME280;20816;50.950;11.108;2023-07-20T02:26:06;98105.47;;;15.05;100.00
34586;BME280;20816;50.950;11.108;2023-07-20T02:28:32;98108.44;;;14.99;100.00
34586;BME280;20816;50.950;11.108;2023-07-20T02:30:59;98105.22;;;14.92;100.00
34586;BME280;20816;50.950;11.108;2023-07-20T02:33:27;98112.00;;;14.98;100.00
34586;BME280;20816;50.950;11.108;2023-07-20T02:35:54;98110.28;;;14.97;100.00
34586;BME280;20816;50.950;11.108;2023-07-20T02:38:20;98117.78;;;15.06;100.00
34586;BME280;20816;50.950;11.108;2023-07-20T02:40:47;98112.50;;;15.06;100.00
34586;BME280;20816;50.950;11.108;2023-07-20T02:43:14;98113.22;;;15.09;100.00
34586;BME280;20816;50.950;11.108;2023-07-20T02:45:40;98113.28;;;15.08;100.00
34586;BME280;20816;50.950;11.108;2023-07-20T02:48:09;98102.63;;;15.09;100.00
34586;BME280;20816;50.950;11.108;2023-07-20T02:50:36;98105.91;;;15.14;100.00
34586;BME280;20816;50.950;11.108;2023-07-20T02:53:02;98102.34;;;15.16;100.00
34586;BME280;20816;50.950;11.108;2023-07-20T02:55:29;98108.63;;;15.13;100.00
34586;BME280;20816;50.950;11.108;2023-07-20T02:57:56;98103.91;;;15.20;100.00
34586;BME280;20816;50.950;11.108;2023-07-20T03:00:23;98110.66;;;15.08;100.00
34586;BME280;20816;50.950;11.108;2023-07-20T03:02:50;98120.50;;;15.04;100.00
34586;BME280;20816;50.950;11.108;2023-07-20T03:05:19;98121.25;;;15.08;100.00
34586;BME280;20816;50.950;11.108;2023-07-20T03:07:46;98122.94;;;15.09;100.00
34586;BME280;20816;50.950;11.108;2023-07-20T03:10:12;98121.72;;;15.16;100.00
34586;BME280;20816;50.950;11.108;2023-07-20T03:12:39;98118.78;;;15.03;100.00
34586;BME280;20816;50.950;11.108;2023-07-20T03:15:06;98110.66;;;15.08;100.00
34586;BME280;20816;50.950;11.108;2023-07-20T03:17:33;98121.06;;;15.11;100.00
34586;BME280;20816;50.950;11.108;2023-07-20T03:20:00;98117.66;;;15.09;100.00
34586;BME280;20816;50.950;11.108;2023-07-20T03:22:27;98123.53;;;15.16;100.00
34586;BME280;20816;50.950;11.108;2023-07-20T03:24:54;98121.25;;;15.08;100.00
34586;BME280;20816;50.950;11.108;2023-07-20T03:27:20;98117.22;;;15.18;100.00
34586;BME280;20816;50.950;11.108;2023-07-20T03:29:47;98118.91;;;15.19;100.00
34586;BME280;20816;50.950;11.108;2023-07-20T03:32:14;98118.91;;;15.19;100.00
34586;BME280;20816;50.950;11.108;2023-07-20T03:34:41;98123.16;;;15.23;100.00
34586;BME280;20816;50.950;11.108;2023-07-20T03:37:07;98121.00;;;15.31;100.00
34586;BME280;20816;50.950;11.108;2023-07-20T03:39:34;98128.78;;;15.34;100.00
34586;BME280;20816;50.950;11.108;2023-07-20T03:42:01;98129.34;;;15.41;100.00
34586;BME280;20816;50.950;11.108;2023-07-20T03:44:27;98127.38;;;15.45;100.00
34586;BME280;20816;50.950;11.108;2023-07-20T03:46:55;98123.03;;;15.43;100.00
34586;BME280;20816;50.950;11.108;2023-07-20T03:49:22;98126.94;;;15.54;100.00
34586;BME280;20816;50.950;11.108;2023-07-20T03:51:49;98128.25;;;15.64;100.00
34586;BME280;20816;50.950;11.108;2023-07-20T03:54:16;98130.09;;;15.62;100.00
34586;BME280;20816;50.950;11.108;2023-07-20T03:56:42;98134.44;;;15.63;100.00
34586;BME280;20816;50.950;11.108;2023-07-20T03:59:09;98129.16;;;15.63;100.00
34586;BME280;20816;50.950;11.108;2023-07-20T04:01:36;98126.72;;;15.58;100.00
34586;BME280;20816;50.950;11.108;2023-07-20T04:04:07;98130.72;;;15.67;100.00
34586;BME280;20816;50.950;11.108;2023-07-20T04:06:34;98139.38;;;15.70;100.00
34586;BME280;20816;50.950;11.108;2023-07-20T04:09:01;98140.88;;;15.76;100.00
34586;BME280;20816;50.950;11.108;2023-07-20T04:11:27;98142.88;;;15.71;100.00
34586;BME280;20816;50.950;11.108;2023-07-20T04:13:54;98142.56;;;15.77;100.00
34586;BME280;20816;50.950;11.108;2023-07-20T04:16:22;98146.72;;;15.83;100.00
34586;BME280;20816;50.950;11.108;2023-07-20T04:18:50;98145.69;;;15.85;100.00
34586;BME280;20816;50.950;11.108;2023-07-20T04:21:17;98150.63;;;15.93;100.00
34586;BME280;20816;50.950;11.108;2023-07-20T04:23:43;98154.13;;;15.93;100.00
34586;BME280;20816;50.950;11.108;2023-07-20T04:26:10;98150.53;;;15.94;100.00
34586;BME280;20816;50.950;11.108;2023-07-20T04:28:39;98155.16;;;15.91;100.00
34586;BME280;20816;50.950;11.108;2023-07-20T04:31:15;98157.41;;;15.98;100.00
34586;BME280;20816;50.950;11.108;2023-07-20T04:33:42;98158.19;;;16.01;100.00
34586;BME280;20816;50.950;11.108;2023-07-20T04:36:09;98153.91;;;15.98;100.00
34586;BME280;20816;50.950;11.108;2023-07-20T04:38:36;98161.13;;;15.94;100.00
34586;BME280;20816;50.950;11.108;2023-07-20T04:41:02;98162.53;;;16.02;100.00
34586;BME280;20816;50.950;11.108;2023-07-20T04:43:29;98169.44;;;16.06;100.00
34586;BME280;20816;50.950;11.108;2023-07-20T04:45:56;98168.41;;;16.08;100.00
34586;BME280;20816;50.950;11.108;2023-07-20T04:48:23;98164.59;;;16.14;100.00
34586;BME280;20816;50.950;11.108;2023-07-20T04:50:49;98163.25;;;16.22;100.00
34586;BME280;20816;50.950;11.108;2023-07-20T04:53:16;98158.31;;;16.32;100.00
34586;BME280;20816;50.950;11.108;2023-07-20T04:55:50;98160.63;;;16.56;100.00
34586;BME280;20816;50.950;11.108;2023-07-20T04:58:21;98167.63;;;16.74;100.00
34586;BME280;20816;50.950;11.108;2023-07-20T05:00:49;98160.97;;;16.83;100.00
34586;BME280;20816;50.950;11.108;2023-07-20T05:03:16;98163.22;;;16.90;100.00
34586;BME280;20816;50.950;11.108;2023-07-20T05:05:43;98175.28;;;16.80;100.00
34586;BME280;20816;50.950;11.108;2023-07-20T05:08:12;98173.50;;;16.96;100.00
34586;BME280;20816;50.950;11.108;2023-07-20T05:10:38;98172.28;;;17.02;100.00
34586;BME280;20816;50.950;11.108;2023-07-20T05:13:05;98169.06;;;17.13;100.00
34586;BME280;20816;50.950;11.108;2023-07-20T05:15:33;98176.97;;;17.30;100.00
34586;BME280;20816;50.950;11.108;2023-07-20T05:18:00;98174.22;;;17.31;100.00
34586;BME280;20816;50.950;11.108;2023-07-20T05:20:27;98169.94;;;17.29;100.00
34586;BME280;20816;50.950;11.108;2023-07-20T05:22:54;98170.69;;;17.47;100.00
34586;BME280;20816;50.950;11.108;2023-07-20T05:25:20;98177.97;;;17.75;100.00
34586;BME280;20816;50.950;11.108;2023-07-20T05:27:49;98167.56;;;18.16;100.00
34586;BME280;20816;50.950;11.108;2023-07-20T05:30:17;98178.44;;;18.27;100.00
34586;BME280;20816;50.950;11.108;2023-07-20T05:32:43;98169.66;;;18.11;100.00
34586;BME280;20816;50.950;11.108;2023-07-20T05:35:12;98171.50;;;18.25;100.00
34586;BME280;20816;50.950;11.108;2023-07-20T05:37:39;98166.84;;;18.28;100.00
34586;BME280;20816;50.950;11.108;2023-07-20T05:40:06;98161.66;;;18.41;99.53
34586;BME280;20816;50.950;11.108;2023-07-20T05:42:34;98165.25;;;18.26;99.74
34586;BME280;20816;50.950;11.108;2023-07-20T05:45:01;98173.13;;;17.97;100.00
34586;BME280;20816;50.950;11.108;2023-07-20T05:47:27;98172.00;;;18.01;100.00
34586;BME280;20816;50.950;11.108;2023-07-20T05:49:54;98166.44;;;17.90;100.00
34586;BME280;20816;50.950;11.108;2023-07-20T05:52:21;98168.97;;;18.07;100.00
34586;BME280;20816;50.950;11.108;2023-07-20T05:54:48;98168.09;;;18.37;100.00
34586;BME280;20816;50.950;11.108;2023-07-20T05:57:14;98166.50;;;18.63;98.79
34586;BME280;20816;50.950;11.108;2023-07-20T05:59:41;98167.47;;;18.62;98.36
34586;BME280;20816;50.950;11.108;2023-07-20T06:02:11;98171.97;;;18.75;98.27
34586;BME280;20816;50.950;11.108;2023-07-20T06:04:39;98173.66;;;19.05;95.13
34586;BME280;20816;50.950;11.108;2023-07-20T06:07:07;98173.63;;;19.33;94.18
34586;BME280;20816;50.950;11.108;2023-07-20T06:09:37;98174.03;;;19.27;93.45
34586;BME280;20816;50.950;11.108;2023-07-20T06:12:04;98170.53;;;19.54;92.96
34586;BME280;20816;50.950;11.108;2023-07-20T06:14:30;98164.03;;;19.72;91.97
34586;BME280;20816;50.950;11.108;2023-07-20T06:16:57;98169.22;;;20.01;90.07
34586;BME280;20816;50.950;11.108;2023-07-20T06:19:24;98169.50;;;20.23;90.03
34586;BME280;20816;50.950;11.108;2023-07-20T06:21:51;98170.13;;;20.27;89.61
34586;BME280;20816;50.950;11.108;2023-07-20T06:24:18;98176.41;;;20.65;86.61
34586;BME280;20816;50.950;11.108;2023-07-20T06:26:44;98171.28;;;20.88;86.21
34586;BME280;20816;50.950;11.108;2023-07-20T06:29:11;98174.69;;;20.64;86.13
34586;BME280;20816;50.950;11.108;2023-07-20T06:31:38;98170.19;;;20.52;86.18
34586;BME280;20816;50.950;11.108;2023-07-20T06:34:05;98166.66;;;20.52;87.32
34586;BME280;20816;50.950;11.108;2023-07-20T06:36:32;98169.50;;;20.36;86.67
34586;BME280;20816;50.950;11.108;2023-07-20T06:38:58;98156.75;;;20.79;86.52
34586;BME280;20816;50.950;11.108;2023-07-20T06:41:28;98161.28;;;21.15;84.83
34586;BME280;20816;50.950;11.108;2023-07-20T06:43:57;98163.13;;;21.27;83.54
34586;BME280;20816;50.950;11.108;2023-07-20T06:46:25;98153.06;;;21.55;82.94
34586;BME280;20816;50.950;11.108;2023-07-20T06:48:54;98157.75;;;21.88;82.86
34586;BME280;20816;50.950;11.108;2023-07-20T06:51:24;98160.31;;;22.14;80.54
34586;BME280;20816;50.950;11.108;2023-07-20T06:53:51;98160.56;;;21.98;81.83
34586;BME280;20816;50.950;11.108;2023-07-20T06:56:18;98157.44;;;22.04;81.00
34586;BME280;20816;50.950;11.108;2023-07-20T06:58:48;98157.22;;;22.42;80.21
34586;BME280;20816;50.950;11.108;2023-07-20T07:01:15;98159.44;;;22.13;79.61
34586;BME280;20816;50.950;11.108;2023-07-20T07:03:43;98161.53;;;22.21;79.38
34586;BME280;20816;50.950;11.108;2023-07-20T07:06:10;98171.25;;;22.10;79.30
34586;BME280;20816;50.950;11.108;2023-07-20T07:08:37;98166.91;;;21.73;79.65
34586;BME280;20816;50.950;11.108;2023-07-20T07:11:04;98168.22;;;21.31;81.39
34586;BME280;20816;50.950;11.108;2023-07-20T07:13:32;98167.03;;;21.71;80.43
34586;BME280;20816;50.950;11.108;2023-07-20T07:15:58;98171.19;;;21.99;79.38
34586;BME280;20816;50.950;11.108;2023-07-20T07:18:25;98163.66;;;22.04;79.43
34586;BME280;20816;50.950;11.108;2023-07-20T07:20:53;98167.03;;;22.19;78.52
34586;BME280;20816;50.950;11.108;2023-07-20T07:23:20;98159.03;;;21.82;80.00
34586;BME280;20816;50.950;11.108;2023-07-20T07:25:47;98162.88;;;21.43;80.14
34586;BME280;20816;50.950;11.108;2023-07-20T07:28:14;98159.91;;;21.35;81.11
34586;BME280;20816;50.950;11.108;2023-07-20T07:30:41;98158.19;;;21.09;82.21
34586;BME280;20816;50.950;11.108;2023-07-20T07:33:08;98159.06;;;21.59;79.77
34586;BME280;20816;50.950;11.108;2023-07-20T07:35:36;98160.53;;;21.26;81.02
34586;BME280;20816;50.950;11.108;2023-07-20T07:38:03;98165.75;;;20.53;84.33
34586;BME280;20816;50.950;11.108;2023-07-20T07:40:51;98165.31;;;20.19;86.03
34586;BME280;20816;50.950;11.108;2023-07-20T07:43:18;98167.00;;;20.60;86.22
34586;BME280;20816;50.950;11.108;2023-07-20T07:45:45;98165.59;;;21.54;80.52
34586;BME280;20816;50.950;11.108;2023-07-20T07:48:12;98173.19;;;22.44;77.30
34586;BME280;20816;50.950;11.108;2023-07-20T07:50:40;98175.06;;;22.65;73.58
34586;BME280;20816;50.950;11.108;2023-07-20T07:53:07;98166.03;;;22.66;73.18
34586;BME280;20816;50.950;11.108;2023-07-20T07:55:35;98160.34;;;23.27;71.98
34586;BME280;20816;50.950;11.108;2023-07-20T07:58:02;98159.38;;;22.94;71.99
34586;BME280;20816;50.950;11.108;2023-07-20T08:00:29;98163.41;;;23.23;71.03
34586;BME280;20816;50.950;11.108;2023-07-20T08:02:56;98157.84;;;23.80;69.82
34586;BME280;20816;50.950;11.108;2023-07-20T08:05:22;98166.25;;;23.75;68.67
34586;BME280;20816;50.950;11.108;2023-07-20T08:07:49;98169.97;;;23.63;67.23
34586;BME280;20816;50.950;11.108;2023-07-20T08:10:16;98167.28;;;23.41;68.61
34586;BME280;20816;50.950;11.108;2023-07-20T08:12:43;98170.97;;;23.17;69.53
34586;BME280;20816;50.950;11.108;2023-07-20T08:15:11;98174.34;;;23.42;69.54
34586;BME280;20816;50.950;11.108;2023-07-20T08:17:39;98166.44;;;23.40;68.91
34586;BME280;20816;50.950;11.108;2023-07-20T08:20:06;98159.31;;;24.37;67.14
34586;BME280;20816;50.950;11.108;2023-07-20T08:22:36;98163.41;;;23.23;68.41
34586;BME280;20816;50.950;11.108;2023-07-20T08:25:02;98153.63;;;22.77;69.63
34586;BME280;20816;50.950;11.108;2023-07-20T08:27:29;98157.97;;;21.85;72.29
34586;BME280;20816;50.950;11.108;2023-07-20T08:29:56;98162.41;;;21.49;74.10
34586;BME280;20816;50.950;11.108;2023-07-20T08:32:26;98168.69;;;21.12;76.21
34586;BME280;20816;50.950;11.108;2023-07-20T08:34:53;98164.44;;;20.58;75.32
34586;BME280;20816;50.950;11.108;2023-07-20T08:37:20;98171.66;;;21.20;74.04
34586;BME280;20816;50.950;11.108;2023-07-20T08:39:47;98168.56;;;21.63;73.48
34586;BME280;20816;50.950;11.108;2023-07-20T08:42:14;98163.63;;;22.75;70.86
34586;BME280;20816;50.950;11.108;2023-07-20T08:44:43;98158.53;;;23.39;68.19
34586;BME280;20816;50.950;11.108;2023-07-20T08:47:12;98165.78;;;22.70;67.13
34586;BME280;20816;50.950;11.108;2023-07-20T08:49:40;98174.72;;;21.76;69.48
34586;BME280;20816;50.950;11.108;2023-07-20T08:52:07;98166.16;;;22.65;69.73
34586;BME280;20816;50.950;11.108;2023-07-20T08:54:34;98162.66;;;23.32;67.41
34586;BME280;20816;50.950;11.108;2023-07-20T08:57:04;98155.69;;;23.63;66.15
34586;BME280;20816;50.950;11.108;2023-07-20T08:59:32;98150.28;;;24.27;64.34
34586;BME280;20816;50.950;11.108;2023-07-20T09:02:00;98159.69;;;24.74;63.72
34586;BME280;20816;50.950;11.108;2023-07-20T09:04:27;98146.47;;;24.92;63.10
34586;BME280;20816;50.950;11.108;2023-07-20T09:06:54;98152.91;;;25.41;61.97
34586;BME280;20816;50.950;11.108;2023-07-20T09:09:21;98149.16;;;25.23;61.20
34586;BME280;20816;50.950;11.108;2023-07-20T09:11:49;98150.63;;;24.75;62.15
34586;BME280;20816;50.950;11.108;2023-07-20T09:14:16;98157.34;;;24.07;64.07
34586;BME280;20816;50.950;11.108;2023-07-20T09:16:50;98160.97;;;22.86;66.40
34586;BME280;20816;50.950;11.108;2023-07-20T09:19:17;98162.91;;;23.29;65.79
34586;BME280;20816;50.950;11.108;2023-07-20T09:21:46;98164.09;;;23.36;65.07
34586;BME280;20816;50.950;11.108;2023-07-20T09:24:14;98156.28;;;23.44;65.64
34586;BME280;20816;50.950;11.108;2023-07-20T09:26:44;98163.88;;;23.39;63.76
34586;BME280;20816;50.950;11.108;2023-07-20T09:29:11;98169.63;;;23.23;64.46
34586;BME280;20816;50.950;11.108;2023-07-20T09:31:38;98167.78;;;23.35;64.12
34586;BME280;20816;50.950;11.108;2023-07-20T09:34:07;98170.44;;;23.57;65.22
34586;BME280;20816;50.950;11.108;2023-07-20T09:36:35;98175.34;;;23.30;63.58
34586;BME280;20816;50.950;11.108;2023-07-20T09:39:05;98168.53;;;22.92;64.43
34586;BME280;20816;50.950;11.108;2023-07-20T09:41:42;98184.94;;;21.82;66.60
34586;BME280;20816;50.950;11.108;2023-07-20T09:44:14;98195.13;;;20.78;73.10
34586;BME280;20816;50.950;11.108;2023-07-20T09:46:45;98203.38;;;19.96;82.32
34586;BME280;20816;50.950;11.108;2023-07-20T09:49:17;98213.97;;;19.42;88.61
34586;BME280;20816;50.950;11.108;2023-07-20T09:51:47;98210.34;;;19.43;90.12
34586;BME280;20816;50.950;11.108;2023-07-20T09:54:14;98215.69;;;19.28;87.90
34586;BME280;20816;50.950;11.108;2023-07-20T09:56:42;98222.47;;;19.05;92.18
34586;BME280;20816;50.950;11.108;2023-07-20T09:59:09;98223.63;;;19.16;92.99
34586;BME280;20816;50.950;11.108;2023-07-20T10:01:40;98227.91;;;18.75;93.36
34586;BME280;20816;50.950;11.108;2023-07-20T10:04:08;98223.03;;;18.68;96.34
34586;BME280;20816;50.950;11.108;2023-07-20T10:06:39;98248.31;;;18.15;100.00
34586;BME280;20816;50.950;11.108;2023-07-20T10:09:10;98243.63;;;18.04;100.00
34586;BME280;20816;50.950;11.108;2023-07-20T10:11:40;98248.13;;;17.72;100.00
34586;BME280;20816;50.950;11.108;2023-07-20T10:14:12;98244.19;;;17.79;100.00
34586;BME280;20816;50.950;11.108;2023-07-20T10:16:46;98255.25;;;17.72;100.00
34586;BME280;20816;50.950;11.108;2023-07-20T10:19:34;98253.78;;;17.82;100.00
34586;BME280;20816;50.950;11.108;2023-07-20T10:22:12;98251.72;;;17.71;100.00
34586;BME280;20816;50.950;11.108;2023-07-20T10:24:45;98255.41;;;18.00;100.00
34586;BME280;20816;50.950;11.108;2023-07-20T10:27:12;98249.59;;;18.24;100.00
34586;BME280;20816;50.950;11.108;2023-07-20T10:29:41;98253.84;;;18.42;100.00
34586;BME280;20816;50.950;11.108;2023-07-20T10:32:08;98252.94;;;19.01;98.60
34586;BME280;20816;50.950;11.108;2023-07-20T10:34:35;98243.56;;;19.51;97.22
34586;BME280;20816;50.950;11.108;2023-07-20T10:37:02;98251.63;;;20.72;90.82
34586;BME280;20816;50.950;11.108;2023-07-20T10:39:32;98239.88;;;21.38;87.64
34586;BME280;20816;50.950;11.108;2023-07-20T10:42:19;98244.28;;;21.76;84.11
34586;BME280;20816;50.950;11.108;2023-07-20T10:44:46;98240.56;;;22.26;82.04
34586;BME280;20816;50.950;11.108;2023-07-20T10:47:14;98242.94;;;22.42;77.04
34586;BME280;20816;50.950;11.108;2023-07-20T10:50:00;98233.13;;;23.11;75.56
34586;BME280;20816;50.950;11.108;2023-07-20T10:52:37;98235.44;;;23.72;71.40
34586;BME280;20816;50.950;11.108;2023-07-20T10:55:11;98229.69;;;23.88;69.82
34586;BME280;20816;50.950;11.108;2023-07-20T10:57:40;98234.47;;;23.62;69.12
34586;BME280;20816;50.950;11.108;2023-07-20T11:00:11;98240.19;;;22.90;70.53
34586;BME280;20816;50.950;11.108;2023-07-20T11:02:46;98247.50;;;22.29;72.83
34586;BME280;20816;50.950;11.108;2023-07-20T11:05:33;98237.34;;;21.97;73.79
34586;BME280;20816;50.950;11.108;2023-07-20T11:08:09;98245.84;;;21.42;75.93
34586;BME280;20816;50.950;11.108;2023-07-20T11:10:36;98249.59;;;20.76;78.50
34586;BME280;20816;50.950;11.108;2023-07-20T11:13:21;98256.63;;;20.24;81.18
34586;BME280;20816;50.950;11.108;2023-07-20T11:18:28;98288.41;;;19.73;92.30
34586;BME280;20816;50.950;11.108;2023-07-20T11:20:55;98294.00;;;18.97;92.86
34586;BME280;20816;50.950;11.108;2023-07-20T11:23:22;98298.03;;;17.99;98.46
34586;BME280;20816;50.950;11.108;2023-07-20T11:25:50;98296.97;;;17.54;100.00
34586;BME280;20816;50.950;11.108;2023-07-20T11:28:16;98295.06;;;17.56;100.00
34586;BME280;20816;50.950;11.108;2023-07-20T11:30:43;98299.72;;;17.52;100.00
34586;BME280;20816;50.950;11.108;2023-07-20T11:33:10;98295.31;;;17.67;100.00
34586;BME280;20816;50.950;11.108;2023-07-20T11:35:44;98298.06;;;17.65;99.30
34586;BME280;20816;50.950;11.108;2023-07-20T11:38:13;98298.53;;;17.89;97.38
34586;BME280;20816;50.950;11.108;2023-07-20T11:40:44;98298.53;;;18.21;98.63
34586;BME280;20816;50.950;11.108;2023-07-20T11:43:12;98299.03;;;18.28;99.34
34586;BME280;20816;50.950;11.108;2023-07-20T11:45:43;98292.34;;;18.20;99.25
34586;BME280;20816;50.950;11.108;2023-07-20T11:48:15;98287.31;;;18.46;100.00
34586;BME280;20816;50.950;11.108;2023-07-20T11:50:41;98283.34;;;18.53;99.26
34586;BME280;20816;50.950;11.108;2023-07-20T11:53:08;98284.88;;;18.57;97.73
34586;BME280;20816;50.950;11.108;2023-07-20T11:55:36;98281.06;;;19.05;98.75
34586;BME280;20816;50.950;11.108;2023-07-20T11:58:07;98291.66;;;19.21;97.11
34586;BME280;20816;50.950;11.108;2023-07-20T12:00:35;98282.53;;;19.40;98.36
34586;BME280;20816;50.950;11.108;2023-07-20T12:03:05;98282.44;;;19.27;95.35
34586;BME280;20816;50.950;11.108;2023-07-20T12:05:33;98270.13;;;19.67;94.40
34586;BME280;20816;50.950;11.108;2023-07-20T12:08:21;98273.91;;;19.77;95.18
34586;BME280;20816;50.950;11.108;2023-07-20T12:10:48;98276.63;;;19.63;93.12
34586;BME280;20816;50.950;11.108;2023-07-20T12:13:15;98276.81;;;19.31;90.18
34586;BME280;20816;50.950;11.108;2023-07-20T12:15:43;98275.09;;;19.59;91.29
34586;BME280;20816;50.950;11.108;2023-07-20T12:18:10;98273.78;;;19.93;89.31
34586;BME280;20816;50.950;11.108;2023-07-20T12:20:37;98273.41;;;20.53;88.80
34586;BME280;20816;50.950;11.108;2023-07-20T12:23:08;98267.66;;;20.72;82.62
34586;BME280;20816;50.950;11.108;2023-07-20T12:28:09;98280.06;;;20.19;83.02
34586;BME280;20816;50.950;11.108;2023-07-20T12:30:40;98279.78;;;20.51;83.85
34586;BME280;20816;50.950;11.108;2023-07-20T12:33:07;98273.44;;;20.91;81.46
34586;BME280;20816;50.950;11.108;2023-07-20T12:35:34;98270.94;;;20.63;82.14
34586;BME280;20816;50.950;11.108;2023-07-20T12:38:01;98269.59;;;20.95;81.19
34586;BME280;20816;50.950;11.108;2023-07-20T12:40:28;98273.44;;;21.04;79.40
34586;BME280;20816;50.950;11.108;2023-07-20T12:42:57;98275.16;;;21.18;78.25
34586;BME280;20816;50.950;11.108;2023-07-20T12:45:24;98270.03;;;20.89;78.16
34586;BME280;20816;50.950;11.108;2023-07-20T12:47:51;98263.19;;;21.11;76.06
34586;BME280;20816;50.950;11.108;2023-07-20T12:50:18;98270.47;;;21.34;76.29
34586;BME280;20816;50.950;11.108;2023-07-20T12:52:45;98264.72;;;21.27;76.93
34586;BME280;20816;50.950;11.108;2023-07-20T12:55:12;98262.28;;;21.61;77.11
34586;BME280;20816;50.950;11.108;2023-07-20T12:57:40;98270.38;;;21.85;74.50
34586;BME280;20816;50.950;11.108;2023-07-20T13:00:09;98265.22;;;22.19;74.00
34586;BME280;20816;50.950;11.108;2023-07-20T13:02:37;98261.56;;;22.44;73.56
34586;BME280;20816;50.950;11.108;2023-07-20T13:05:04;98262.69;;;22.52;71.19